This is the latest recevied weather packets stored in our database for station/object HS2LXA-WX. If no packets are shown the sender has not sent any weather packets the latest 10 day(s).
| Time | Temp. | Humidity | Pressure | Rain* | Wind** | Luminosity | Snow |
|---|---|---|---|---|---|---|---|
| 1778090659 | 32.22° C | 69% | 1013.2 hPa | 0 mm | - | - | - |
| 1778090059 | 32.22° C | 70% | 1013.2 hPa | 0 mm | - | - | - |
| 1778089459 | 32.22° C | 70% | 1013.1 hPa | 0 mm | - | - | - |
| 1778088859 | 32.22° C | 71% | 1013.2 hPa | 0 mm | - | - | - |
| 1778088256 | 32.22° C | 71% | 1013.1 hPa | 0 mm | - | - | - |
| 1778087270 | 32.22° C | 70% | 1013.1 hPa | 0 mm | - | - | - |
| 1778086670 | 32.22° C | 71% | 1013.1 hPa | 0 mm | - | - | - |
| 1778086070 | 32.22° C | 70% | 1013.2 hPa | 0 mm | - | - | - |
| 1778085470 | 32.22° C | 71% | 1013.2 hPa | 0 mm | - | - | - |
| 1778084870 | 32.22° C | 71% | 1013.2 hPa | 0 mm | - | - | - |
| 1778084083 | 31.67° C | 74% | 1013.2 hPa | 0 mm | - | - | - |
| 1778083484 | 30° C | 82% | 1013.2 hPa | 0 mm | - | - | - |
| 1778082882 | 30.56° C | 82% | 1013.1 hPa | 0 mm | - | - | - |
| 1778082282 | 30.56° C | 83% | 1013.2 hPa | 0 mm | - | - | - |
| 1778081683 | 30° C | 84% | 1013.1 hPa | 0 mm | - | - | - |
| 1778081083 | 30.56° C | 83% | 1013.2 hPa | 0 mm | - | - | - |
| 1778079787 | 31.11° C | 78% | 1013.2 hPa | 0 mm | - | - | - |
| 1778079100 | 33.33° C | 68% | 1013.2 hPa | 0 mm | - | - | - |
| 1778078499 | 33.33° C | 67% | 1013.1 hPa | 0 mm | - | - | - |
| 1778077483 | 32.78° C | 71% | 1013.2 hPa | 0 mm | - | - | - |
| 1778076884 | 32.78° C | 70% | 1013.1 hPa | 0 mm | - | - | - |
| 1778075872 | 32.78° C | 71% | 1013.1 hPa | 0 mm | - | - | - |
| 1778075272 | 33.33° C | 71% | 1013.2 hPa | 0 mm | - | - | - |
| 1778074672 | 33.33° C | 70% | 1013.1 hPa | 0 mm | - | - | - |
| 1778074068 | 33.33° C | 71% | 1013.2 hPa | 0 mm | - | - | - |
* Rain latest hour (hover to see other rain measurements)
** Current wind speed in m/s (hover to see current wind gust speed)